sensor_id;sensor_type;location;lat;lon;timestamp;P1;durP1;ratioP1;P2;durP2;ratioP2
60372;SDS011;46216;52.220;5.134;2023-02-11T00:02:25;31.17;;;5.05;;
60372;SDS011;46216;52.220;5.134;2023-02-11T00:04:53;19.08;;;4.38;;
60372;SDS011;46216;52.220;5.134;2023-02-11T00:07:18;23.05;;;4.30;;
60372;SDS011;46216;52.220;5.134;2023-02-11T00:09:44;21.67;;;4.13;;
60372;SDS011;46216;52.220;5.134;2023-02-11T00:12:09;18.90;;;4.07;;
60372;SDS011;46216;52.220;5.134;2023-02-11T00:14:34;25.00;;;5.50;;
60372;SDS011;46216;52.220;5.134;2023-02-11T00:17:00;19.92;;;4.28;;
60372;SDS011;46216;52.220;5.134;2023-02-11T00:19:25;22.73;;;4.22;;
60372;SDS011;46216;52.220;5.134;2023-02-11T00:21:50;22.25;;;4.10;;
60372;SDS011;46216;52.220;5.134;2023-02-11T00:24:16;22.90;;;4.30;;
60372;SDS011;46216;52.220;5.134;2023-02-11T00:26:41;18.20;;;3.63;;
60372;SDS011;46216;52.220;5.134;2023-02-11T00:29:06;27.70;;;4.22;;
60372;SDS011;46216;52.220;5.134;2023-02-11T00:31:32;17.27;;;3.80;;
60372;SDS011;46216;52.220;5.134;2023-02-11T00:33:57;21.00;;;4.30;;
60372;SDS011;46216;52.220;5.134;2023-02-11T00:36:24;23.10;;;4.13;;
60372;SDS011;46216;52.220;5.134;2023-02-11T00:38:52;18.48;;;4.40;;
60372;SDS011;46216;52.220;5.134;2023-02-11T00:41:18;30.08;;;5.28;;
60372;SDS011;46216;52.220;5.134;2023-02-11T00:43:45;21.35;;;4.40;;
60372;SDS011;46216;52.220;5.134;2023-02-11T00:46:11;24.77;;;4.60;;
60372;SDS011;46216;52.220;5.134;2023-02-11T00:48:37;16.38;;;4.20;;
60372;SDS011;46216;52.220;5.134;2023-02-11T00:51:02;20.90;;;4.18;;
60372;SDS011;46216;52.220;5.134;2023-02-11T00:53:28;22.50;;;4.47;;
60372;SDS011;46216;52.220;5.134;2023-02-11T00:55:54;17.10;;;4.10;;
60372;SDS011;46216;52.220;5.134;2023-02-11T00:58:19;23.38;;;5.07;;
60372;SDS011;46216;52.220;5.134;2023-02-11T01:00:46;21.55;;;4.88;;
60372;SDS011;46216;52.220;5.134;2023-02-11T01:03:12;25.65;;;4.95;;
60372;SDS011;46216;52.220;5.134;2023-02-11T01:05:37;23.08;;;6.05;;
60372;SDS011;46216;52.220;5.134;2023-02-11T01:08:03;21.58;;;4.90;;
60372;SDS011;46216;52.220;5.134;2023-02-11T01:10:29;22.70;;;4.82;;
60372;SDS011;46216;52.220;5.134;2023-02-11T01:12:54;22.05;;;5.00;;
60372;SDS011;46216;52.220;5.134;2023-02-11T01:15:20;20.58;;;5.03;;
60372;SDS011;46216;52.220;5.134;2023-02-11T01:17:46;23.45;;;4.72;;
60372;SDS011;46216;52.220;5.134;2023-02-11T01:20:20;24.92;;;4.85;;
60372;SDS011;46216;52.220;5.134;2023-02-11T01:22:47;21.98;;;4.50;;
60372;SDS011;46216;52.220;5.134;2023-02-11T01:25:12;28.55;;;4.97;;
60372;SDS011;46216;52.220;5.134;2023-02-11T01:27:38;24.98;;;4.70;;
60372;SDS011;46216;52.220;5.134;2023-02-11T01:30:04;23.85;;;5.47;;
60372;SDS011;46216;52.220;5.134;2023-02-11T01:32:31;27.23;;;5.40;;
60372;SDS011;46216;52.220;5.134;2023-02-11T01:34:56;22.70;;;4.68;;
60372;SDS011;46216;52.220;5.134;2023-02-11T01:37:22;24.70;;;4.63;;
60372;SDS011;46216;52.220;5.134;2023-02-11T01:39:47;21.25;;;5.03;;
60372;SDS011;46216;52.220;5.134;2023-02-11T01:42:17;22.23;;;4.63;;
60372;SDS011;46216;52.220;5.134;2023-02-11T01:44:44;21.45;;;4.45;;
60372;SDS011;46216;52.220;5.134;2023-02-11T01:47:09;29.88;;;5.40;;
60372;SDS011;46216;52.220;5.134;2023-02-11T01:49:37;26.38;;;5.22;;
60372;SDS011;46216;52.220;5.134;2023-02-11T01:52:17;26.52;;;5.03;;
60372;SDS011;46216;52.220;5.134;2023-02-11T01:54:47;25.95;;;5.65;;
60372;SDS011;46216;52.220;5.134;2023-02-11T01:57:56;23.83;;;5.32;;
60372;SDS011;46216;52.220;5.134;2023-02-11T02:00:26;25.92;;;5.07;;
60372;SDS011;46216;52.220;5.134;2023-02-11T02:03:07;24.13;;;5.03;;
60372;SDS011;46216;52.220;5.134;2023-02-11T02:05:40;23.92;;;4.95;;
60372;SDS011;46216;52.220;5.134;2023-02-11T02:11:00;21.15;;;5.28;;
60372;SDS011;46216;52.220;5.134;2023-02-11T02:13:26;26.42;;;5.70;;
60372;SDS011;46216;52.220;5.134;2023-02-11T02:15:54;26.75;;;5.22;;
60372;SDS011;46216;52.220;5.134;2023-02-11T02:18:38;22.08;;;4.93;;
60372;SDS011;46216;52.220;5.134;2023-02-11T02:29:22;24.25;;;5.78;;
60372;SDS011;46216;52.220;5.134;2023-02-11T02:34:43;21.58;;;5.53;;
60372;SDS011;46216;52.220;5.134;2023-02-11T02:37:16;26.98;;;5.90;;
60372;SDS011;46216;52.220;5.134;2023-02-11T02:39:47;26.35;;;6.75;;
60372;SDS011;46216;52.220;5.134;2023-02-11T02:42:14;26.90;;;5.78;;
60372;SDS011;46216;52.220;5.134;2023-02-11T02:44:46;22.63;;;5.85;;
60372;SDS011;46216;52.220;5.134;2023-02-11T02:47:12;24.65;;;5.97;;
60372;SDS011;46216;52.220;5.134;2023-02-11T02:49:38;21.30;;;5.80;;
60372;SDS011;46216;52.220;5.134;2023-02-11T03:10:48;20.42;;;5.15;;
60372;SDS011;46216;52.220;5.134;2023-02-11T03:13:17;24.92;;;6.00;;
60372;SDS011;46216;52.220;5.134;2023-02-11T03:15:48;30.42;;;6.50;;
60372;SDS011;46216;52.220;5.134;2023-02-11T03:18:16;22.45;;;5.70;;
60372;SDS011;46216;52.220;5.134;2023-02-11T03:20:46;21.23;;;5.70;;
60372;SDS011;46216;52.220;5.134;2023-02-11T03:23:15;28.92;;;5.80;;
60372;SDS011;46216;52.220;5.134;2023-02-11T03:25:52;25.02;;;6.13;;
60372;SDS011;46216;52.220;5.134;2023-02-11T03:28:28;29.23;;;6.53;;
60372;SDS011;46216;52.220;5.134;2023-02-11T03:31:11;28.70;;;6.63;;
60372;SDS011;46216;52.220;5.134;2023-02-11T03:33:54;27.45;;;6.43;;
60372;SDS011;46216;52.220;5.134;2023-02-11T03:36:31;17.27;;;5.88;;
60372;SDS011;46216;52.220;5.134;2023-02-11T03:39:20;28.88;;;6.40;;
60372;SDS011;46216;52.220;5.134;2023-02-11T03:41:49;28.50;;;5.93;;
60372;SDS011;46216;52.220;5.134;2023-02-11T03:44:16;25.95;;;6.43;;
60372;SDS011;46216;52.220;5.134;2023-02-11T03:46:47;22.90;;;6.60;;
60372;SDS011;46216;52.220;5.134;2023-02-11T03:49:15;30.58;;;7.55;;
60372;SDS011;46216;52.220;5.134;2023-02-11T03:51:44;32.13;;;6.97;;
60372;SDS011;46216;52.220;5.134;2023-02-11T03:54:13;21.25;;;6.38;;
60372;SDS011;46216;52.220;5.134;2023-02-11T03:56:45;30.27;;;7.07;;
60372;SDS011;46216;52.220;5.134;2023-02-11T03:59:15;26.83;;;7.50;;
60372;SDS011;46216;52.220;5.134;2023-02-11T04:01:40;27.85;;;7.47;;
60372;SDS011;46216;52.220;5.134;2023-02-11T04:04:06;22.85;;;7.05;;
60372;SDS011;46216;52.220;5.134;2023-02-11T04:06:31;31.92;;;7.80;;
60372;SDS011;46216;52.220;5.134;2023-02-11T04:08:56;22.88;;;6.07;;
60372;SDS011;46216;52.220;5.134;2023-02-11T04:11:22;29.48;;;7.60;;
60372;SDS011;46216;52.220;5.134;2023-02-11T04:13:47;25.83;;;7.75;;
60372;SDS011;46216;52.220;5.134;2023-02-11T04:16:12;27.80;;;6.82;;
60372;SDS011;46216;52.220;5.134;2023-02-11T04:18:38;28.20;;;7.40;;
60372;SDS011;46216;52.220;5.134;2023-02-11T04:21:03;26.95;;;7.07;;
60372;SDS011;46216;52.220;5.134;2023-02-11T04:23:29;24.63;;;7.13;;
60372;SDS011;46216;52.220;5.134;2023-02-11T04:25:54;30.83;;;8.10;;
60372;SDS011;46216;52.220;5.134;2023-02-11T04:28:19;30.30;;;8.07;;
60372;SDS011;46216;52.220;5.134;2023-02-11T04:30:45;26.23;;;8.35;;
60372;SDS011;46216;52.220;5.134;2023-02-11T04:33:10;27.42;;;8.18;;
60372;SDS011;46216;52.220;5.134;2023-02-11T04:35:35;24.70;;;8.02;;
60372;SDS011;46216;52.220;5.134;2023-02-11T04:38:01;27.80;;;8.63;;
60372;SDS011;46216;52.220;5.134;2023-02-11T04:40:26;26.70;;;9.23;;
60372;SDS011;46216;52.220;5.134;2023-02-11T04:42:51;31.05;;;8.82;;
60372;SDS011;46216;52.220;5.134;2023-02-11T04:45:17;25.17;;;8.93;;
60372;SDS011;46216;52.220;5.134;2023-02-11T04:47:42;27.42;;;8.82;;
60372;SDS011;46216;52.220;5.134;2023-02-11T04:50:08;29.20;;;9.60;;
60372;SDS011;46216;52.220;5.134;2023-02-11T04:52:33;32.78;;;9.48;;
60372;SDS011;46216;52.220;5.134;2023-02-11T04:54:58;28.73;;;10.27;;
60372;SDS011;46216;52.220;5.134;2023-02-11T04:57:24;29.83;;;10.57;;
60372;SDS011;46216;52.220;5.134;2023-02-11T04:59:49;26.38;;;9.68;;
60372;SDS011;46216;52.220;5.134;2023-02-11T05:02:15;25.70;;;9.73;;
60372;SDS011;46216;52.220;5.134;2023-02-11T05:04:40;31.70;;;10.10;;
60372;SDS011;46216;52.220;5.134;2023-02-11T05:07:05;38.13;;;11.23;;
60372;SDS011;46216;52.220;5.134;2023-02-11T05:09:31;30.05;;;10.75;;
60372;SDS011;46216;52.220;5.134;2023-02-11T05:11:56;26.02;;;10.27;;
60372;SDS011;46216;52.220;5.134;2023-02-11T05:14:21;30.42;;;11.30;;
60372;SDS011;46216;52.220;5.134;2023-02-11T05:16:47;35.10;;;12.05;;
60372;SDS011;46216;52.220;5.134;2023-02-11T05:19:12;31.65;;;11.05;;
60372;SDS011;46216;52.220;5.134;2023-02-11T05:21:37;33.92;;;11.65;;
60372;SDS011;46216;52.220;5.134;2023-02-11T05:24:03;33.63;;;11.68;;
60372;SDS011;46216;52.220;5.134;2023-02-11T05:26:28;31.52;;;11.98;;
60372;SDS011;46216;52.220;5.134;2023-02-11T05:28:54;34.63;;;12.40;;
60372;SDS011;46216;52.220;5.134;2023-02-11T05:31:20;28.80;;;11.60;;
60372;SDS011;46216;52.220;5.134;2023-02-11T05:33:45;35.25;;;13.50;;
60372;SDS011;46216;52.220;5.134;2023-02-11T05:36:11;36.00;;;12.85;;
60372;SDS011;46216;52.220;5.134;2023-02-11T05:38:37;27.88;;;12.18;;
60372;SDS011;46216;52.220;5.134;2023-02-11T05:41:04;31.88;;;12.02;;
60372;SDS011;46216;52.220;5.134;2023-02-11T05:43:30;32.67;;;12.48;;
60372;SDS011;46216;52.220;5.134;2023-02-11T05:45:55;35.42;;;13.40;;
60372;SDS011;46216;52.220;5.134;2023-02-11T05:48:21;37.50;;;13.55;;
60372;SDS011;46216;52.220;5.134;2023-02-11T05:50:46;40.38;;;14.15;;
60372;SDS011;46216;52.220;5.134;2023-02-11T05:53:11;37.45;;;14.40;;
60372;SDS011;46216;52.220;5.134;2023-02-11T05:55:37;31.85;;;14.48;;
60372;SDS011;46216;52.220;5.134;2023-02-11T05:58:02;35.95;;;14.60;;
60372;SDS011;46216;52.220;5.134;2023-02-11T06:00:28;39.47;;;15.45;;
60372;SDS011;46216;52.220;5.134;2023-02-11T06:02:53;39.45;;;15.18;;
60372;SDS011;46216;52.220;5.134;2023-02-11T06:05:19;34.50;;;15.35;;
60372;SDS011;46216;52.220;5.134;2023-02-11T06:07:44;31.35;;;15.23;;
60372;SDS011;46216;52.220;5.134;2023-02-11T06:10:10;35.03;;;15.68;;
60372;SDS011;46216;52.220;5.134;2023-02-11T06:12:36;38.08;;;16.33;;
60372;SDS011;46216;52.220;5.134;2023-02-11T06:15:02;35.85;;;15.25;;
60372;SDS011;46216;52.220;5.134;2023-02-11T06:17:28;42.70;;;16.13;;
60372;SDS011;46216;52.220;5.134;2023-02-11T06:19:57;43.10;;;16.48;;
60372;SDS011;46216;52.220;5.134;2023-02-11T06:22:24;33.70;;;16.55;;
60372;SDS011;46216;52.220;5.134;2023-02-11T06:24:50;36.25;;;15.80;;
60372;SDS011;46216;52.220;5.134;2023-02-11T06:27:15;39.17;;;16.83;;
60372;SDS011;46216;52.220;5.134;2023-02-11T06:29:42;34.42;;;16.20;;
60372;SDS011;46216;52.220;5.134;2023-02-11T06:32:07;35.22;;;16.05;;
60372;SDS011;46216;52.220;5.134;2023-02-11T06:34:33;32.78;;;16.15;;
60372;SDS011;46216;52.220;5.134;2023-02-11T06:36:58;42.03;;;16.80;;
60372;SDS011;46216;52.220;5.134;2023-02-11T06:39:23;37.60;;;17.08;;
60372;SDS011;46216;52.220;5.134;2023-02-11T06:41:49;37.55;;;17.50;;
60372;SDS011;46216;52.220;5.134;2023-02-11T06:44:15;38.88;;;17.60;;
60372;SDS011;46216;52.220;5.134;2023-02-11T06:46:40;41.83;;;17.63;;
60372;SDS011;46216;52.220;5.134;2023-02-11T06:49:06;42.67;;;18.25;;
60372;SDS011;46216;52.220;5.134;2023-02-11T06:51:31;38.78;;;18.77;;
60372;SDS011;46216;52.220;5.134;2023-02-11T06:53:56;39.17;;;18.20;;
60372;SDS011;46216;52.220;5.134;2023-02-11T06:56:22;40.38;;;18.73;;
60372;SDS011;46216;52.220;5.134;2023-02-11T06:58:52;40.60;;;18.80;;
60372;SDS011;46216;52.220;5.134;2023-02-11T07:01:19;37.97;;;18.77;;
60372;SDS011;46216;52.220;5.134;2023-02-11T07:03:45;49.28;;;19.92;;
60372;SDS011;46216;52.220;5.134;2023-02-11T07:06:19;46.20;;;19.40;;
60372;SDS011;46216;52.220;5.134;2023-02-11T07:08:45;44.10;;;19.48;;
60372;SDS011;46216;52.220;5.134;2023-02-11T07:11:29;42.35;;;20.88;;
60372;SDS011;46216;52.220;5.134;2023-02-11T07:13:58;48.42;;;20.73;;
60372;SDS011;46216;52.220;5.134;2023-02-11T07:16:25;46.30;;;22.02;;
60372;SDS011;46216;52.220;5.134;2023-02-11T07:18:51;52.97;;;21.40;;
60372;SDS011;46216;52.220;5.134;2023-02-11T07:21:18;47.17;;;20.98;;
60372;SDS011;46216;52.220;5.134;2023-02-11T07:23:45;46.38;;;21.10;;
60372;SDS011;46216;52.220;5.134;2023-02-11T07:26:12;50.53;;;21.85;;
60372;SDS011;46216;52.220;5.134;2023-02-11T07:28:48;42.00;;;20.90;;
60372;SDS011;46216;52.220;5.134;2023-02-11T07:31:15;46.13;;;22.52;;
60372;SDS011;46216;52.220;5.134;2023-02-11T07:33:42;44.15;;;21.67;;
60372;SDS011;46216;52.220;5.134;2023-02-11T07:36:10;47.58;;;22.25;;
60372;SDS011;46216;52.220;5.134;2023-02-11T07:38:37;41.97;;;21.10;;
60372;SDS011;46216;52.220;5.134;2023-02-11T07:41:04;47.38;;;22.50;;
60372;SDS011;46216;52.220;5.134;2023-02-11T07:43:31;47.63;;;22.92;;
60372;SDS011;46216;52.220;5.134;2023-02-11T07:45:57;42.40;;;22.55;;
60372;SDS011;46216;52.220;5.134;2023-02-11T07:48:23;48.38;;;23.40;;
60372;SDS011;46216;52.220;5.134;2023-02-11T07:50:49;47.33;;;23.45;;
60372;SDS011;46216;52.220;5.134;2023-02-11T07:53:14;49.58;;;23.17;;
60372;SDS011;46216;52.220;5.134;2023-02-11T07:55:41;43.60;;;23.02;;
60372;SDS011;46216;52.220;5.134;2023-02-11T07:58:07;44.05;;;22.75;;
60372;SDS011;46216;52.220;5.134;2023-02-11T08:00:32;45.67;;;23.85;;
60372;SDS011;46216;52.220;5.134;2023-02-11T08:02:57;44.05;;;21.80;;
60372;SDS011;46216;52.220;5.134;2023-02-11T08:05:23;42.47;;;23.00;;
60372;SDS011;46216;52.220;5.134;2023-02-11T08:07:51;46.17;;;23.23;;
60372;SDS011;46216;52.220;5.134;2023-02-11T08:10:18;48.83;;;24.02;;
60372;SDS011;46216;52.220;5.134;2023-02-11T08:12:43;50.50;;;23.63;;
60372;SDS011;46216;52.220;5.134;2023-02-11T08:15:08;42.90;;;22.90;;
60372;SDS011;46216;52.220;5.134;2023-02-11T08:17:34;41.53;;;22.13;;
60372;SDS011;46216;52.220;5.134;2023-02-11T08:20:00;48.83;;;23.40;;
60372;SDS011;46216;52.220;5.134;2023-02-11T08:22:26;43.28;;;24.35;;
60372;SDS011;46216;52.220;5.134;2023-02-11T08:24:51;46.80;;;23.05;;
60372;SDS011;46216;52.220;5.134;2023-02-11T08:27:16;45.40;;;24.02;;
60372;SDS011;46216;52.220;5.134;2023-02-11T08:29:42;44.90;;;22.77;;
60372;SDS011;46216;52.220;5.134;2023-02-11T08:32:07;41.53;;;22.92;;
60372;SDS011;46216;52.220;5.134;2023-02-11T08:34:32;44.97;;;24.30;;
60372;SDS011;46216;52.220;5.134;2023-02-11T08:36:58;46.00;;;22.30;;
60372;SDS011;46216;52.220;5.134;2023-02-11T08:39:23;44.17;;;22.55;;
60372;SDS011;46216;52.220;5.134;2023-02-11T08:41:50;42.35;;;23.50;;
60372;SDS011;46216;52.220;5.134;2023-02-11T08:44:17;43.45;;;23.40;;
60372;SDS011;46216;52.220;5.134;2023-02-11T08:46:44;44.35;;;22.90;;
60372;SDS011;46216;52.220;5.134;2023-02-11T08:49:09;40.35;;;22.67;;
60372;SDS011;46216;52.220;5.134;2023-02-11T08:51:35;44.45;;;22.75;;
60372;SDS011;46216;52.220;5.134;2023-02-11T08:54:00;39.90;;;22.02;;
60372;SDS011;46216;52.220;5.134;2023-02-11T08:56:26;38.00;;;23.23;;
60372;SDS011;46216;52.220;5.134;2023-02-11T08:58:53;46.30;;;22.63;;
60372;SDS011;46216;52.220;5.134;2023-02-11T09:01:20;38.05;;;22.25;;
60372;SDS011;46216;52.220;5.134;2023-02-11T09:03:48;39.15;;;22.35;;
60372;SDS011;46216;52.220;5.134;2023-02-11T09:06:14;35.63;;;21.35;;
60372;SDS011;46216;52.220;5.134;2023-02-11T09:08:41;38.10;;;22.27;;
60372;SDS011;46216;52.220;5.134;2023-02-11T09:11:08;34.90;;;21.40;;
60372;SDS011;46216;52.220;5.134;2023-02-11T09:13:34;38.60;;;20.95;;
60372;SDS011;46216;52.220;5.134;2023-02-11T09:16:01;38.83;;;20.85;;
60372;SDS011;46216;52.220;5.134;2023-02-11T09:18:28;43.22;;;22.88;;
60372;SDS011;46216;52.220;5.134;2023-02-11T09:21:00;34.20;;;20.90;;
60372;SDS011;46216;52.220;5.134;2023-02-11T09:23:26;38.40;;;21.75;;
60372;SDS011;46216;52.220;5.134;2023-02-11T09:25:52;42.03;;;22.20;;
60372;SDS011;46216;52.220;5.134;2023-02-11T09:28:17;36.45;;;20.42;;
60372;SDS011;46216;52.220;5.134;2023-02-11T09:30:42;38.45;;;22.10;;
60372;SDS011;46216;52.220;5.134;2023-02-11T09:33:08;39.33;;;22.67;;
60372;SDS011;46216;52.220;5.134;2023-02-11T09:35:33;34.78;;;20.85;;
60372;SDS011;46216;52.220;5.134;2023-02-11T09:37:59;36.45;;;21.00;;
60372;SDS011;46216;52.220;5.134;2023-02-11T09:40:24;34.90;;;20.50;;
60372;SDS011;46216;52.220;5.134;2023-02-11T09:42:50;33.05;;;20.65;;
60372;SDS011;46216;52.220;5.134;2023-02-11T09:45:24;36.40;;;20.67;;
60372;SDS011;46216;52.220;5.134;2023-02-11T09:47:57;32.03;;;21.02;;
60372;SDS011;46216;52.220;5.134;2023-02-11T09:50:35;35.47;;;20.95;;
60372;SDS011;46216;52.220;5.134;2023-02-11T09:55:41;35.45;;;20.30;;
60372;SDS011;46216;52.220;5.134;2023-02-11T09:58:14;33.10;;;20.77;;
60372;SDS011;46216;52.220;5.134;2023-02-11T10:00:47;35.75;;;21.30;;
60372;SDS011;46216;52.220;5.134;2023-02-11T10:09:03;32.83;;;19.90;;
60372;SDS011;46216;52.220;5.134;2023-02-11T10:11:40;38.40;;;21.38;;
60372;SDS011;46216;52.220;5.134;2023-02-11T10:22:37;34.20;;;19.88;;
60372;SDS011;46216;52.220;5.134;2023-02-11T10:25:42;32.10;;;20.40;;
60372;SDS011;46216;52.220;5.134;2023-02-11T10:28:12;32.83;;;20.92;;
60372;SDS011;46216;52.220;5.134;2023-02-11T10:30:41;30.15;;;18.98;;
60372;SDS011;46216;52.220;5.134;2023-02-11T10:33:22;31.13;;;19.85;;
60372;SDS011;46216;52.220;5.134;2023-02-11T10:35:52;27.88;;;19.02;;
60372;SDS011;46216;52.220;5.134;2023-02-11T10:38:17;27.98;;;19.58;;
60372;SDS011;46216;52.220;5.134;2023-02-11T10:40:43;28.40;;;18.85;;
60372;SDS011;46216;52.220;5.134;2023-02-11T10:43:13;27.35;;;18.73;;
60372;SDS011;46216;52.220;5.134;2023-02-11T10:45:50;26.90;;;17.45;;
60372;SDS011;46216;52.220;5.134;2023-02-11T10:53:39;24.58;;;15.63;;
60372;SDS011;46216;52.220;5.134;2023-02-11T10:56:05;19.38;;;13.32;;
60372;SDS011;46216;52.220;5.134;2023-02-11T11:01:09;17.60;;;12.10;;
60372;SDS011;46216;52.220;5.134;2023-02-11T11:03:48;15.98;;;10.65;;
60372;SDS011;46216;52.220;5.134;2023-02-11T11:06:15;18.13;;;10.90;;
60372;SDS011;46216;52.220;5.134;2023-02-11T11:08:52;14.25;;;9.80;;
60372;SDS011;46216;52.220;5.134;2023-02-11T11:11:19;13.75;;;10.25;;
60372;SDS011;46216;52.220;5.134;2023-02-11T11:18:51;16.58;;;9.75;;
60372;SDS011;46216;52.220;5.134;2023-02-11T11:21:33;14.15;;;9.30;;
60372;SDS011;46216;52.220;5.134;2023-02-11T11:24:16;16.00;;;9.68;;
60372;SDS011;46216;52.220;5.134;2023-02-11T11:26:45;15.45;;;9.48;;
60372;SDS011;46216;52.220;5.134;2023-02-11T11:29:17;14.80;;;9.32;;
60372;SDS011;46216;52.220;5.134;2023-02-11T11:31:58;12.10;;;9.23;;
60372;SDS011;46216;52.220;5.134;2023-02-11T11:37:10;11.52;;;8.35;;
60372;SDS011;46216;52.220;5.134;2023-02-11T11:39:47;12.25;;;8.93;;
60372;SDS011;46216;52.220;5.134;2023-02-11T11:42:23;14.02;;;8.65;;
60372;SDS011;46216;52.220;5.134;2023-02-11T11:44:55;12.88;;;9.30;;
60372;SDS011;46216;52.220;5.134;2023-02-11T11:47:46;11.98;;;8.55;;
60372;SDS011;46216;52.220;5.134;2023-02-11T11:55:44;10.57;;;9.10;;
60372;SDS011;46216;52.220;5.134;2023-02-11T11:58:21;13.40;;;9.25;;
60372;SDS011;46216;52.220;5.134;2023-02-11T12:09:18;10.35;;;7.15;;
60372;SDS011;46216;52.220;5.134;2023-02-11T12:14:50;9.75;;;7.13;;
60372;SDS011;46216;52.220;5.134;2023-02-11T12:25:06;13.38;;;8.85;;
60372;SDS011;46216;52.220;5.134;2023-02-11T12:38:34;11.63;;;7.47;;
60372;SDS011;46216;52.220;5.134;2023-02-11T12:55:23;12.25;;;8.63;;
60372;SDS011;46216;52.220;5.134;2023-02-11T12:57:52;11.38;;;7.13;;
60372;SDS011;46216;52.220;5.134;2023-02-11T13:00:22;10.80;;;6.95;;
60372;SDS011;46216;52.220;5.134;2023-02-11T13:02:53;10.57;;;7.55;;
60372;SDS011;46216;52.220;5.134;2023-02-11T13:08:03;7.82;;;6.05;;
60372;SDS011;46216;52.220;5.134;2023-02-11T13:10:40;13.80;;;8.15;;
60372;SDS011;46216;52.220;5.134;2023-02-11T13:13:20;13.85;;;8.50;;
60372;SDS011;46216;52.220;5.134;2023-02-11T13:15:58;14.27;;;8.10;;
60372;SDS011;46216;52.220;5.134;2023-02-11T13:30:36;7.03;;;5.68;;
60372;SDS011;46216;52.220;5.134;2023-02-11T13:37:58;8.45;;;6.47;;
60372;SDS011;46216;52.220;5.134;2023-02-11T13:40:30;8.70;;;6.18;;
60372;SDS011;46216;52.220;5.134;2023-02-11T13:42:59;9.77;;;6.50;;
60372;SDS011;46216;52.220;5.134;2023-02-11T13:47:58;9.90;;;7.07;;
60372;SDS011;46216;52.220;5.134;2023-02-11T13:50:25;10.18;;;7.03;;
60372;SDS011;46216;52.220;5.134;2023-02-11T13:52:59;9.70;;;6.95;;
60372;SDS011;46216;52.220;5.134;2023-02-11T13:55:26;11.63;;;7.22;;
60372;SDS011;46216;52.220;5.134;2023-02-11T14:11:43;10.15;;;6.43;;
60372;SDS011;46216;52.220;5.134;2023-02-11T14:19:33;10.68;;;6.82;;
60372;SDS011;46216;52.220;5.134;2023-02-11T14:22:13;8.75;;;5.93;;
60372;SDS011;46216;52.220;5.134;2023-02-11T14:24:52;13.15;;;7.07;;
60372;SDS011;46216;52.220;5.134;2023-02-11T14:27:34;10.40;;;6.97;;
60372;SDS011;46216;52.220;5.134;2023-02-11T14:36:08;9.07;;;6.55;;
60372;SDS011;46216;52.220;5.134;2023-02-11T14:39:06;10.80;;;6.65;;
60372;SDS011;46216;52.220;5.134;2023-02-11T14:41:43;12.25;;;7.32;;
60372;SDS011;46216;52.220;5.134;2023-02-11T14:44:17;11.13;;;7.13;;
60372;SDS011;46216;52.220;5.134;2023-02-11T14:46:47;11.98;;;6.97;;
60372;SDS011;46216;52.220;5.134;2023-02-11T14:49:23;10.63;;;6.65;;
60372;SDS011;46216;52.220;5.134;2023-02-11T14:51:49;12.43;;;6.93;;
60372;SDS011;46216;52.220;5.134;2023-02-11T14:54:18;13.10;;;7.85;;
60372;SDS011;46216;52.220;5.134;2023-02-11T14:57:08;9.98;;;6.55;;
60372;SDS011;46216;52.220;5.134;2023-02-11T14:59:37;11.65;;;6.70;;
60372;SDS011;46216;52.220;5.134;2023-02-11T15:02:20;11.60;;;6.78;;
60372;SDS011;46216;52.220;5.134;2023-02-11T15:04:47;10.52;;;6.40;;
60372;SDS011;46216;52.220;5.134;2023-02-11T15:07:12;11.15;;;6.80;;
60372;SDS011;46216;52.220;5.134;2023-02-11T15:09:41;10.90;;;6.60;;
60372;SDS011;46216;52.220;5.134;2023-02-11T15:14:52;9.90;;;6.13;;
60372;SDS011;46216;52.220;5.134;2023-02-11T15:17:21;11.38;;;6.53;;
60372;SDS011;46216;52.220;5.134;2023-02-11T15:19:50;9.57;;;5.75;;
60372;SDS011;46216;52.220;5.134;2023-02-11T15:22:21;9.95;;;6.25;;
60372;SDS011;46216;52.220;5.134;2023-02-11T15:25:02;11.48;;;6.53;;
60372;SDS011;46216;52.220;5.134;2023-02-11T15:27:42;11.35;;;6.65;;
60372;SDS011;46216;52.220;5.134;2023-02-11T15:32:43;12.60;;;7.00;;
60372;SDS011;46216;52.220;5.134;2023-02-11T15:35:09;12.50;;;6.93;;
60372;SDS011;46216;52.220;5.134;2023-02-11T15:37:35;11.45;;;6.72;;
60372;SDS011;46216;52.220;5.134;2023-02-11T15:40:11;8.77;;;6.70;;
60372;SDS011;46216;52.220;5.134;2023-02-11T15:42:52;8.23;;;6.40;;
60372;SDS011;46216;52.220;5.134;2023-02-11T15:45:21;11.23;;;6.75;;
60372;SDS011;46216;52.220;5.134;2023-02-11T15:47:53;12.38;;;6.63;;
60372;SDS011;46216;52.220;5.134;2023-02-11T15:50:25;12.75;;;5.78;;
60372;SDS011;46216;52.220;5.134;2023-02-11T15:52:54;13.50;;;6.53;;
60372;SDS011;46216;52.220;5.134;2023-02-11T15:55:21;10.35;;;6.30;;
60372;SDS011;46216;52.220;5.134;2023-02-11T15:57:54;11.00;;;6.22;;
60372;SDS011;46216;52.220;5.134;2023-02-11T16:00:22;9.52;;;6.05;;
60372;SDS011;46216;52.220;5.134;2023-02-11T16:02:54;9.82;;;6.45;;
60372;SDS011;46216;52.220;5.134;2023-02-11T16:05:32;10.70;;;6.40;;
60372;SDS011;46216;52.220;5.134;2023-02-11T16:08:11;11.00;;;6.55;;
60372;SDS011;46216;52.220;5.134;2023-02-11T16:10:52;10.38;;;6.00;;
60372;SDS011;46216;52.220;5.134;2023-02-11T16:13:22;10.35;;;6.85;;
60372;SDS011;46216;52.220;5.134;2023-02-11T16:18:22;9.15;;;6.53;;
60372;SDS011;46216;52.220;5.134;2023-02-11T16:20:51;12.25;;;6.40;;
60372;SDS011;46216;52.220;5.134;2023-02-11T16:23:21;14.20;;;7.43;;
60372;SDS011;46216;52.220;5.134;2023-02-11T16:25:50;12.38;;;6.80;;
60372;SDS011;46216;52.220;5.134;2023-02-11T16:28:21;10.32;;;6.50;;
60372;SDS011;46216;52.220;5.134;2023-02-11T16:30:50;10.98;;;7.40;;
60372;SDS011;46216;52.220;5.134;2023-02-11T16:33:17;13.07;;;7.78;;
60372;SDS011;46216;52.220;5.134;2023-02-11T16:35:43;9.68;;;7.05;;
60372;SDS011;46216;52.220;5.134;2023-02-11T16:38:11;9.55;;;6.65;;
60372;SDS011;46216;52.220;5.134;2023-02-11T16:40:37;10.48;;;7.05;;
60372;SDS011;46216;52.220;5.134;2023-02-11T16:43:05;11.70;;;6.97;;
60372;SDS011;46216;52.220;5.134;2023-02-11T16:45:31;11.40;;;7.35;;
60372;SDS011;46216;52.220;5.134;2023-02-11T16:48:00;12.95;;;6.90;;
60372;SDS011;46216;52.220;5.134;2023-02-11T16:50:26;11.40;;;7.00;;
60372;SDS011;46216;52.220;5.134;2023-02-11T16:52:51;12.70;;;7.65;;
60372;SDS011;46216;52.220;5.134;2023-02-11T16:55:17;13.02;;;7.57;;
60372;SDS011;46216;52.220;5.134;2023-02-11T16:57:43;12.73;;;7.65;;
60372;SDS011;46216;52.220;5.134;2023-02-11T17:00:08;18.25;;;8.93;;
60372;SDS011;46216;52.220;5.134;2023-02-11T17:02:35;13.02;;;7.55;;
60372;SDS011;46216;52.220;5.134;2023-02-11T17:05:04;16.13;;;8.07;;
60372;SDS011;46216;52.220;5.134;2023-02-11T17:07:31;16.33;;;8.00;;
60372;SDS011;46216;52.220;5.134;2023-02-11T17:09:56;10.75;;;7.32;;
60372;SDS011;46216;52.220;5.134;2023-02-11T17:12:22;12.45;;;7.60;;
60372;SDS011;46216;52.220;5.134;2023-02-11T17:14:49;18.77;;;9.55;;
60372;SDS011;46216;52.220;5.134;2023-02-11T17:17:15;15.55;;;8.20;;
60372;SDS011;46216;52.220;5.134;2023-02-11T17:19:40;16.30;;;9.32;;
60372;SDS011;46216;52.220;5.134;2023-02-11T17:22:05;17.42;;;9.65;;
60372;SDS011;46216;52.220;5.134;2023-02-11T17:24:31;16.63;;;9.05;;
60372;SDS011;46216;52.220;5.134;2023-02-11T17:26:56;14.18;;;8.10;;
60372;SDS011;46216;52.220;5.134;2023-02-11T17:29:23;19.02;;;9.43;;
60372;SDS011;46216;52.220;5.134;2023-02-11T17:31:49;18.85;;;9.00;;